createdAt,value
2018-07-28T00:02:12.198Z,8.80
2018-07-28T00:06:55.863Z,8.27
2018-07-28T00:11:39.862Z,8.40
2018-07-28T00:16:26.896Z,8.60
2018-07-28T00:21:10.408Z,8.60
2018-07-28T00:26:00.380Z,8.50
2018-07-28T00:30:43.983Z,8.97
2018-07-28T00:35:27.761Z,9.83
2018-07-28T00:40:11.233Z,9.27
2018-07-28T00:44:55.037Z,9.23
2018-07-28T00:49:38.644Z,10.40
2018-07-28T00:54:22.438Z,8.73
2018-07-28T00:59:05.832Z,8.40
2018-07-28T01:03:50.457Z,8.70
2018-07-28T01:08:33.939Z,9.43
2018-07-28T01:13:18.584Z,9.23
2018-07-28T01:18:02.174Z,9.67
2018-07-28T01:22:45.671Z,10.63
2018-07-28T01:27:29.124Z,10.83
2018-07-28T01:32:12.605Z,10.00
2018-07-28T01:36:57.350Z,11.63
2018-07-28T01:41:41.912Z,10.73
2018-07-28T01:46:28.511Z,9.60
2018-07-28T01:51:11.973Z,9.70
2018-07-28T01:55:55.678Z,11.63
2018-07-28T02:00:39.313Z,10.17
2018-07-28T02:05:23.110Z,10.30
2018-07-28T02:10:08.074Z,10.93
2018-07-28T02:14:52.711Z,10.97
2018-07-28T02:19:36.317Z,9.10
2018-07-28T02:24:20.197Z,10.67
2018-07-28T02:29:03.742Z,10.70
2018-07-28T02:33:47.027Z,10.40
2018-07-28T02:38:30.611Z,9.90
2018-07-28T02:43:15.260Z,10.17
2018-07-28T02:47:58.675Z,10.57
2018-07-28T02:52:42.378Z,10.27
2018-07-28T02:57:26.029Z,10.40
2018-07-28T03:02:09.591Z,12.00
2018-07-28T03:06:58.240Z,9.73
2018-07-28T03:11:42.285Z,10.03
2018-07-28T03:16:26.009Z,11.33
2018-07-28T03:21:09.447Z,11.03
2018-07-28T03:25:53.496Z,12.17
2018-07-28T03:30:37.001Z,15.17
2018-07-28T03:35:20.477Z,11.50
2018-07-28T03:40:04.593Z,12.47
2018-07-28T03:44:48.209Z,12.00
2018-07-28T03:49:32.439Z,12.73
2018-07-28T03:54:16.225Z,18.90
2018-07-28T03:58:59.851Z,22.53
2018-07-28T04:03:43.491Z,22.97
2018-07-28T04:08:27.162Z,24.03
2018-07-28T04:13:10.755Z,25.23
2018-07-28T04:17:55.446Z,24.87
2018-07-28T04:22:39.216Z,18.50
2018-07-28T04:27:22.894Z,22.70
2018-07-28T04:32:06.432Z,24.27
2018-07-28T04:36:49.960Z,26.77
2018-07-28T04:41:33.445Z,25.07
2018-07-28T04:46:18.231Z,21.87
2018-07-28T04:51:22.381Z,20.37
2018-07-28T04:56:07.955Z,20.00
2018-07-28T05:00:51.464Z,21.30
2018-07-28T05:05:38.356Z,22.37
2018-07-28T05:10:22.044Z,16.27
2018-07-28T05:15:06.722Z,13.00
2018-07-28T05:19:50.352Z,20.73
2018-07-28T05:24:35.489Z,20.10
2018-07-28T05:29:19.126Z,14.33
2018-07-28T05:34:02.963Z,10.70
2018-07-28T05:38:46.444Z,10.33
2018-07-28T05:43:30.153Z,10.53
2018-07-28T05:48:13.836Z,10.20
2018-07-28T05:52:58.490Z,12.20
2018-07-28T05:57:42.310Z,10.57
2018-07-28T06:02:28.239Z,12.13
2018-07-28T06:07:11.611Z,9.30
2018-07-28T06:11:55.228Z,11.23
2018-07-28T06:16:38.703Z,12.80
2018-07-28T06:21:22.127Z,11.33
2018-07-28T06:26:08.942Z,19.63
2018-07-28T06:30:52.408Z,14.07
2018-07-28T06:35:37.411Z,13.83
2018-07-28T06:40:21.344Z,15.83
2018-07-28T06:45:06.660Z,17.53
2018-07-28T06:49:50.138Z,11.73
2018-07-28T06:54:33.711Z,9.40
2018-07-28T06:59:17.376Z,9.83
2018-07-28T07:04:01.009Z,10.87
2018-07-28T07:08:44.608Z,10.20
2018-07-28T07:13:33.079Z,9.37
2018-07-28T07:18:16.720Z,12.20
2018-07-28T07:23:00.339Z,9.57
2018-07-28T07:27:43.976Z,10.90
2018-07-28T07:32:27.413Z,11.00
2018-07-28T07:37:10.841Z,8.83
2018-07-28T07:41:54.533Z,9.40
2018-07-28T07:46:38.030Z,8.87
2018-07-28T07:51:21.980Z,17.53
2018-07-28T07:56:07.030Z,15.70
2018-07-28T08:00:51.612Z,15.43
2018-07-28T08:05:36.556Z,16.03
2018-07-28T08:10:20.125Z,15.17
2018-07-28T08:15:03.885Z,15.67
2018-07-28T08:19:47.562Z,14.57
2018-07-28T08:24:34.331Z,15.67
2018-07-28T08:29:18.336Z,13.00
2018-07-28T08:34:02.003Z,13.33
2018-07-28T08:38:45.544Z,13.33
2018-07-28T08:43:33.530Z,12.17
2018-07-28T08:48:17.157Z,12.97
2018-07-28T08:53:01.229Z,11.73
2018-07-28T08:57:44.901Z,12.63
2018-07-28T09:08:16.973Z,12.60
2018-07-28T09:13:00.890Z,8.63
2018-07-28T09:17:44.578Z,8.20
2018-07-28T09:22:28.314Z,10.33
2018-07-28T09:27:28.513Z,11.70
2018-07-28T09:32:14.693Z,8.63
2018-07-28T09:36:58.678Z,8.90
2018-07-28T09:41:45.760Z,8.10
2018-07-28T09:46:29.545Z,10.10
2018-07-28T09:51:13.185Z,9.53
2018-07-28T09:55:56.987Z,9.33
2018-07-28T10:00:47.234Z,11.00
2018-07-28T10:05:31.105Z,11.33
2018-07-28T10:10:15.028Z,10.77
2018-07-28T10:14:59.664Z,12.10
2018-07-28T10:19:44.200Z,9.57
2018-07-28T10:24:28.264Z,8.13
2018-07-28T10:29:12.353Z,10.30
2018-07-28T10:33:57.383Z,8.77
2018-07-28T10:44:06.749Z,8.97
2018-07-28T10:53:59.372Z,8.20
2018-07-28T10:58:44.616Z,6.93
2018-07-28T11:03:28.131Z,8.67
2018-07-28T11:08:13.215Z,6.57
2018-07-28T11:12:57.992Z,5.50
2018-07-28T11:17:41.640Z,5.33
2018-07-28T11:22:26.358Z,4.63
2018-07-28T11:27:09.808Z,4.43
2018-07-28T11:32:05.022Z,5.47
2018-07-28T11:36:59.251Z,5.97
2018-07-28T11:41:54.463Z,3.57
2018-07-28T11:46:38.997Z,3.47
2018-07-28T11:51:22.777Z,3.63
2018-07-28T11:56:06.336Z,6.70
2018-07-28T12:00:49.787Z,8.20
2018-07-28T12:05:34.413Z,8.53
2018-07-28T12:10:17.918Z,9.37
2018-07-28T12:15:05.853Z,8.07
2018-07-28T12:19:49.452Z,8.13
2018-07-28T12:24:34.179Z,7.93
2018-07-28T12:29:17.774Z,6.40
2018-07-28T12:34:02.273Z,6.20
2018-07-28T12:38:45.824Z,6.07
2018-07-28T12:43:33.005Z,6.33
2018-07-28T12:48:19.464Z,7.20
2018-07-28T12:53:04.753Z,6.93
2018-07-28T12:57:48.213Z,9.90
2018-07-28T13:02:42.417Z,8.45
2018-07-28T13:07:25.885Z,7.10
2018-07-28T13:12:15.478Z,7.47
2018-07-28T13:16:59.086Z,7.40
2018-07-28T13:21:42.588Z,7.00
2018-07-28T13:26:26.158Z,6.62
2018-07-28T13:31:14.544Z,7.28
2018-07-28T13:35:58.084Z,6.23
2018-07-28T13:40:41.714Z,5.97
2018-07-28T13:45:25.454Z,6.92
2018-07-28T13:50:09.196Z,5.47
2018-07-28T13:54:54.733Z,6.17
2018-07-28T13:59:38.357Z,6.55
2018-07-28T14:04:21.934Z,5.53
2018-07-28T14:09:09.747Z,6.80
2018-07-28T14:13:54.617Z,5.83
2018-07-28T14:18:38.159Z,8.77
2018-07-28T14:23:26.920Z,7.57
2018-07-28T14:28:16.686Z,6.67
2018-07-28T14:33:00.403Z,6.97
2018-07-28T14:37:56.693Z,6.70
2018-07-28T14:42:43.769Z,6.90
2018-07-28T14:47:27.311Z,7.30
2018-07-28T14:52:10.942Z,7.70
2018-07-28T14:56:54.543Z,7.87
2018-07-28T15:01:38.226Z,7.70
2018-07-28T15:06:21.796Z,8.90
2018-07-28T15:11:05.484Z,8.33
2018-07-28T15:15:49.021Z,9.27
2018-07-28T15:20:32.643Z,7.77
2018-07-28T15:25:16.040Z,7.67
2018-07-28T15:30:00.083Z,7.93
2018-07-28T15:34:43.642Z,8.97
2018-07-28T15:39:27.163Z,10.67
2018-07-28T15:44:10.678Z,8.20
2018-07-28T15:48:54.182Z,8.50
2018-07-28T15:53:41.602Z,8.37
2018-07-28T15:58:25.463Z,9.40
2018-07-28T16:03:13.015Z,9.67
2018-07-28T16:09:25.831Z,8.97
2018-07-28T16:14:10.571Z,10.03
2018-07-28T16:18:58.968Z,10.73
2018-07-28T16:23:46.538Z,9.37
2018-07-28T16:28:30.146Z,11.77
2018-07-28T16:33:14.850Z,10.63
2018-07-28T16:37:59.121Z,8.57
2018-07-28T16:42:43.500Z,9.20
2018-07-28T16:47:28.359Z,9.03
2018-07-28T16:52:13.074Z,9.73
2018-07-28T16:56:57.518Z,9.00
2018-07-28T17:01:47.869Z,11.13
2018-07-28T17:06:31.502Z,8.57
2018-07-28T17:11:15.371Z,9.03
2018-07-28T17:15:59.980Z,13.00
2018-07-28T17:20:44.860Z,11.40
2018-07-28T17:25:28.429Z,9.27
2018-07-28T17:30:12.050Z,11.77
2018-07-28T17:34:57.844Z,8.87
2018-07-28T17:39:41.301Z,10.20
2018-07-28T17:44:24.965Z,11.27
2018-07-28T17:49:08.492Z,8.50
2018-07-28T17:53:52.352Z,9.33
2018-07-28T17:58:42.215Z,7.73
2018-07-28T18:03:25.998Z,6.63
2018-07-28T18:08:09.509Z,8.23
2018-07-28T18:12:55.006Z,10.70
2018-07-28T18:17:38.703Z,8.17
2018-07-28T18:22:22.486Z,7.13
2018-07-28T18:27:06.066Z,8.13
2018-07-28T18:31:49.613Z,8.20
2018-07-28T18:36:34.103Z,8.60
2018-07-28T18:41:21.088Z,11.60
2018-07-28T18:46:05.296Z,10.60
2018-07-28T18:50:48.885Z,8.87
2018-07-28T18:55:33.253Z,8.87
2018-07-28T19:00:17.938Z,9.67
2018-07-28T19:05:01.622Z,10.27
2018-07-28T19:09:53.648Z,10.43
2018-07-28T19:14:40.040Z,11.73
2018-07-28T19:19:23.589Z,8.10
2018-07-28T19:24:08.291Z,11.40
2018-07-28T19:28:57.256Z,9.20
2018-07-28T19:33:40.946Z,10.17
2018-07-28T19:38:24.518Z,8.83
2018-07-28T19:49:04.727Z,12.23
2018-07-28T19:53:52.391Z,8.33
2018-07-28T19:58:36.019Z,9.90
2018-07-28T20:03:22.747Z,9.50
2018-07-28T20:08:06.415Z,8.87
2018-07-28T20:12:51.115Z,9.40
2018-07-28T20:17:34.597Z,10.13
2018-07-28T20:22:18.282Z,8.77
2018-07-28T20:27:01.813Z,8.60
2018-07-28T20:31:45.401Z,8.93
2018-07-28T20:36:29.022Z,14.50
2018-07-28T20:41:12.618Z,9.00
2018-07-28T20:45:56.102Z,10.90
2018-07-28T20:50:39.662Z,9.00
2018-07-28T20:55:23.130Z,11.00
2018-07-28T21:00:07.562Z,11.97
2018-07-28T21:04:51.060Z,11.27
2018-07-28T21:09:34.630Z,10.10
2018-07-28T21:14:19.243Z,11.47
2018-07-28T21:19:02.646Z,9.77
2018-07-28T21:23:46.360Z,12.23
2018-07-28T21:28:29.682Z,10.57
2018-07-28T21:33:13.348Z,9.80
2018-07-28T21:37:56.935Z,11.43
2018-07-28T21:42:41.495Z,10.83
2018-07-28T21:47:25.095Z,15.40
2018-07-28T21:52:08.587Z,11.47
2018-07-28T21:56:52.821Z,10.57
2018-07-28T22:01:36.713Z,11.13
